Terminal Aerodrome Forecast
Issued by NWS

Home | Current Version | Previous Version | Text Only | Print | Product List | Glossary Off
Versions: 1 2 3 4 5 6 7 8 9 10 11 12 13 14 15 16 17 18 19 20

000
FTUS43 KMPX 201120
TAFRNH
TAF
KRNH 201120Z 2012/2112 16006KT P6SM BKN060
     FM201400 17012G18KT P6SM SCT060
     FM210100 17006KT P6SM SCT250=

USA.gov is the U.S. government's official web portal to all federal, state and local government web resources and services.